sensor_id;sensor_type;location;lat;lon;timestamp;pressure;altitude;pressure_sealevel;temperature;humidity
4814;BME280;15375;48.540;9.268;2023-03-04T00:01:00;97801.28;;;-0.56;100.00
4814;BME280;15375;48.540;9.268;2023-03-04T00:03:26;97842.03;;;-0.38;100.00
4814;BME280;15375;48.540;9.268;2023-03-04T00:05:51;97823.59;;;-0.64;100.00
4814;BME280;15375;48.540;9.268;2023-03-04T00:08:16;97845.69;;;-0.55;100.00
4814;BME280;15375;48.540;9.268;2023-03-04T00:10:42;97836.41;;;-0.57;100.00
4814;BME280;15375;48.540;9.268;2023-03-04T00:13:08;97836.09;;;-0.56;100.00
4814;BME280;15375;48.540;9.268;2023-03-04T00:15:33;97814.31;;;-0.79;100.00
4814;BME280;15375;48.540;9.268;2023-03-04T00:17:58;97838.09;;;-0.65;100.00
4814;BME280;15375;48.540;9.268;2023-03-04T00:20:24;97816.97;;;-0.79;100.00
4814;BME280;15375;48.540;9.268;2023-03-04T00:22:49;97803.56;;;-0.91;100.00
4814;BME280;15375;48.540;9.268;2023-03-04T00:25:15;97834.94;;;-0.79;100.00
4814;BME280;15375;48.540;9.268;2023-03-04T00:27:40;97857.53;;;-0.68;100.00
4814;BME280;15375;48.540;9.268;2023-03-04T00:30:06;97863.22;;;-0.57;100.00
4814;BME280;15375;48.540;9.268;2023-03-04T00:32:32;97821.63;;;-0.88;100.00
4814;BME280;15375;48.540;9.268;2023-03-04T00:34:57;97829.94;;;-0.69;100.00
4814;BME280;15375;48.540;9.268;2023-03-04T00:37:23;97818.28;;;-0.85;100.00
4814;BME280;15375;48.540;9.268;2023-03-04T00:39:48;97836.81;;;-0.80;100.00
4814;BME280;15375;48.540;9.268;2023-03-04T00:42:13;97842.53;;;-0.69;100.00
4814;BME280;15375;48.540;9.268;2023-03-04T00:44:39;97793.06;;;-0.96;100.00
4814;BME280;15375;48.540;9.268;2023-03-04T00:47:04;97804.13;;;-0.85;100.00
4814;BME280;15375;48.540;9.268;2023-03-04T00:49:30;97813.31;;;-0.74;100.00
4814;BME280;15375;48.540;9.268;2023-03-04T00:51:55;97833.88;;;-0.54;100.00
4814;BME280;15375;48.540;9.268;2023-03-04T00:54:20;97809.75;;;-0.66;100.00
4814;BME280;15375;48.540;9.268;2023-03-04T00:56:46;97838.22;;;-0.49;100.00
4814;BME280;15375;48.540;9.268;2023-03-04T00:59:11;97825.03;;;-0.54;100.00
4814;BME280;15375;48.540;9.268;2023-03-04T01:01:36;97803.81;;;-0.72;100.00
4814;BME280;15375;48.540;9.268;2023-03-04T01:04:02;97845.59;;;-0.46;100.00
4814;BME280;15375;48.540;9.268;2023-03-04T01:06:27;97823.81;;;-0.57;100.00
4814;BME280;15375;48.540;9.268;2023-03-04T01:08:53;97844.81;;;-0.47;100.00
4814;BME280;15375;48.540;9.268;2023-03-04T01:11:18;97808.38;;;-0.72;100.00
4814;BME280;15375;48.540;9.268;2023-03-04T01:13:43;97828.84;;;-0.55;100.00
4814;BME280;15375;48.540;9.268;2023-03-04T01:16:09;97825.03;;;-0.54;100.00
4814;BME280;15375;48.540;9.268;2023-03-04T01:18:35;97807.84;;;-0.66;100.00
4814;BME280;15375;48.540;9.268;2023-03-04T01:21:00;97833.06;;;-0.67;100.00
4814;BME280;15375;48.540;9.268;2023-03-04T01:23:26;97830.84;;;-0.65;100.00
4814;BME280;15375;48.540;9.268;2023-03-04T01:25:51;97819.44;;;-0.74;100.00
4814;BME280;15375;48.540;9.268;2023-03-04T01:28:16;97811.66;;;-0.99;100.00
4814;BME280;15375;48.540;9.268;2023-03-04T01:30:42;97833.44;;;-1.01;100.00
4814;BME280;15375;48.540;9.268;2023-03-04T01:33:07;97795.59;;;-1.32;100.00
4814;BME280;15375;48.540;9.268;2023-03-04T01:35:32;97825.53;;;-1.18;100.00
4814;BME280;15375;48.540;9.268;2023-03-04T01:37:58;97827.84;;;-1.28;100.00
4814;BME280;15375;48.540;9.268;2023-03-04T01:40:23;97831.56;;;-1.21;100.00
4814;BME280;15375;48.540;9.268;2023-03-04T01:42:49;97786.59;;;-1.48;100.00
4814;BME280;15375;48.540;9.268;2023-03-04T01:45:17;97808.44;;;-1.25;100.00
4814;BME280;15375;48.540;9.268;2023-03-04T01:47:46;97820.38;;;-1.23;100.00
4814;BME280;15375;48.540;9.268;2023-03-04T01:50:33;97848.72;;;-1.22;100.00
4814;BME280;15375;48.540;9.268;2023-03-04T01:53:00;97802.16;;;-1.42;100.00
4814;BME280;15375;48.540;9.268;2023-03-04T01:55:27;97808.53;;;-1.34;100.00
4814;BME280;15375;48.540;9.268;2023-03-04T01:57:53;97794.78;;;-1.45;100.00
4814;BME280;15375;48.540;9.268;2023-03-04T02:00:27;97737.66;;;-1.81;100.00
4814;BME280;15375;48.540;9.268;2023-03-04T02:02:58;97823.53;;;-1.21;100.00
4814;BME280;15375;48.540;9.268;2023-03-04T02:05:25;97808.13;;;-1.24;100.00
4814;BME280;15375;48.540;9.268;2023-03-04T02:07:53;97803.09;;;-1.25;100.00
4814;BME280;15375;48.540;9.268;2023-03-04T02:10:20;97835.53;;;-1.06;100.00
4814;BME280;15375;48.540;9.268;2023-03-04T02:12:45;97782.97;;;-1.44;100.00
4814;BME280;15375;48.540;9.268;2023-03-04T02:15:11;97792.44;;;-1.46;100.00
4814;BME280;15375;48.540;9.268;2023-03-04T02:17:37;97791.00;;;-1.44;100.00
4814;BME280;15375;48.540;9.268;2023-03-04T02:22:48;97824.44;;;-1.17;100.00
4814;BME280;15375;48.540;9.268;2023-03-04T02:25:21;97821.16;;;-1.22;100.00
4814;BME280;15375;48.540;9.268;2023-03-04T02:27:48;97800.19;;;-1.53;100.00
4814;BME280;15375;48.540;9.268;2023-03-04T02:30:15;97803.78;;;-1.49;100.00
4814;BME280;15375;48.540;9.268;2023-03-04T02:32:40;97823.56;;;-1.42;100.00
4814;BME280;15375;48.540;9.268;2023-03-04T02:35:13;97801.75;;;-1.52;100.00
4814;BME280;15375;48.540;9.268;2023-03-04T02:37:40;97799.28;;;-1.57;100.00
4814;BME280;15375;48.540;9.268;2023-03-04T02:40:15;97797.44;;;-1.65;100.00
4814;BME280;15375;48.540;9.268;2023-03-04T02:42:44;97804.63;;;-1.57;100.00
4814;BME280;15375;48.540;9.268;2023-03-04T02:48:06;97819.44;;;-1.39;100.00
4814;BME280;15375;48.540;9.268;2023-03-04T02:50:35;97824.34;;;-1.41;100.00
4814;BME280;15375;48.540;9.268;2023-03-04T02:53:02;97799.53;;;-1.50;100.00
4814;BME280;15375;48.540;9.268;2023-03-04T02:55:27;97801.06;;;-1.61;100.00
4814;BME280;15375;48.540;9.268;2023-03-04T02:57:53;97771.75;;;-1.78;100.00
4814;BME280;15375;48.540;9.268;2023-03-04T03:00:19;97802.94;;;-1.62;100.00
4814;BME280;15375;48.540;9.268;2023-03-04T03:02:44;97761.59;;;-1.85;100.00
4814;BME280;15375;48.540;9.268;2023-03-04T03:05:11;97809.97;;;-1.57;100.00
4814;BME280;15375;48.540;9.268;2023-03-04T03:07:36;97794.97;;;-1.70;100.00
4814;BME280;15375;48.540;9.268;2023-03-04T03:10:02;97824.16;;;-1.57;100.00
4814;BME280;15375;48.540;9.268;2023-03-04T03:12:27;97783.97;;;-1.89;100.00
4814;BME280;15375;48.540;9.268;2023-03-04T03:14:53;97785.84;;;-1.90;100.00
4814;BME280;15375;48.540;9.268;2023-03-04T03:17:18;97803.38;;;-1.80;100.00
4814;BME280;15375;48.540;9.268;2023-03-04T03:19:43;97762.78;;;-1.95;100.00
4814;BME280;15375;48.540;9.268;2023-03-04T03:22:09;97787.78;;;-1.78;100.00
4814;BME280;15375;48.540;9.268;2023-03-04T03:24:34;97789.63;;;-1.70;100.00
4814;BME280;15375;48.540;9.268;2023-03-04T03:27:00;97796.28;;;-1.76;100.00
4814;BME280;15375;48.540;9.268;2023-03-04T03:29:25;97808.50;;;-1.67;100.00
4814;BME280;15375;48.540;9.268;2023-03-04T03:31:50;97814.47;;;-1.70;100.00
4814;BME280;15375;48.540;9.268;2023-03-04T03:34:16;97812.00;;;-1.75;100.00
4814;BME280;15375;48.540;9.268;2023-03-04T03:36:41;97780.25;;;-1.97;100.00
4814;BME280;15375;48.540;9.268;2023-03-04T03:39:06;97788.56;;;-1.99;100.00
4814;BME280;15375;48.540;9.268;2023-03-04T03:41:32;97800.63;;;-1.92;100.00
4814;BME280;15375;48.540;9.268;2023-03-04T03:43:57;97805.78;;;-1.87;100.00
4814;BME280;15375;48.540;9.268;2023-03-04T03:46:22;97795.94;;;-1.96;100.00
4814;BME280;15375;48.540;9.268;2023-03-04T03:48:48;97777.59;;;-2.06;100.00
4814;BME280;15375;48.540;9.268;2023-03-04T03:51:14;97783.09;;;-2.02;100.00
4814;BME280;15375;48.540;9.268;2023-03-04T03:53:39;97826.34;;;-1.79;100.00
4814;BME280;15375;48.540;9.268;2023-03-04T03:56:07;97765.44;;;-2.24;100.00
4814;BME280;15375;48.540;9.268;2023-03-04T03:58:32;97773.63;;;-2.20;100.00
4814;BME280;15375;48.540;9.268;2023-03-04T04:00:58;97783.94;;;-2.10;100.00
4814;BME280;15375;48.540;9.268;2023-03-04T04:03:23;97785.56;;;-2.18;100.00
4814;BME280;15375;48.540;9.268;2023-03-04T04:05:49;97803.53;;;-2.06;100.00
4814;BME280;15375;48.540;9.268;2023-03-04T04:08:16;97813.41;;;-1.98;100.00
4814;BME280;15375;48.540;9.268;2023-03-04T04:10:42;97817.25;;;-2.08;100.00
4814;BME280;15375;48.540;9.268;2023-03-04T04:13:08;97820.72;;;-2.07;100.00
4814;BME280;15375;48.540;9.268;2023-03-04T04:15:33;97809.41;;;-2.13;100.00
4814;BME280;15375;48.540;9.268;2023-03-04T04:17:58;97811.28;;;-2.13;100.00
4814;BME280;15375;48.540;9.268;2023-03-04T04:20:24;97822.59;;;-2.08;100.00
4814;BME280;15375;48.540;9.268;2023-03-04T04:22:49;97776.84;;;-2.35;100.00
4814;BME280;15375;48.540;9.268;2023-03-04T04:25:15;97794.53;;;-2.22;100.00
4814;BME280;15375;48.540;9.268;2023-03-04T04:27:40;97811.44;;;-2.10;100.00
4814;BME280;15375;48.540;9.268;2023-03-04T04:30:06;97787.34;;;-2.30;100.00
4814;BME280;15375;48.540;9.268;2023-03-04T04:32:31;97782.97;;;-2.35;100.00
4814;BME280;15375;48.540;9.268;2023-03-04T04:34:57;97780.31;;;-2.35;100.00
4814;BME280;15375;48.540;9.268;2023-03-04T04:37:22;97808.69;;;-2.22;100.00
4814;BME280;15375;48.540;9.268;2023-03-04T04:39:47;97783.47;;;-2.41;100.00
4814;BME280;15375;48.540;9.268;2023-03-04T04:42:12;97801.16;;;-2.28;100.00
4814;BME280;15375;48.540;9.268;2023-03-04T04:44:38;97783.34;;;-2.45;100.00
4814;BME280;15375;48.540;9.268;2023-03-04T04:47:05;97809.97;;;-2.28;100.00
4814;BME280;15375;48.540;9.268;2023-03-04T04:49:31;97816.69;;;-2.22;100.00
4814;BME280;15375;48.540;9.268;2023-03-04T04:51:56;97787.97;;;-2.33;100.00
4814;BME280;15375;48.540;9.268;2023-03-04T04:54:22;97830.16;;;-2.10;100.00
4814;BME280;15375;48.540;9.268;2023-03-04T04:56:47;97792.09;;;-2.36;100.00
4814;BME280;15375;48.540;9.268;2023-03-04T04:59:13;97791.00;;;-2.35;100.00
4814;BME280;15375;48.540;9.268;2023-03-04T05:01:38;97812.91;;;-2.21;100.00
4814;BME280;15375;48.540;9.268;2023-03-04T05:04:04;97831.13;;;-2.14;100.00
4814;BME280;15375;48.540;9.268;2023-03-04T05:06:29;97809.06;;;-2.32;100.00
4814;BME280;15375;48.540;9.268;2023-03-04T05:08:55;97834.91;;;-2.24;100.00
4814;BME280;15375;48.540;9.268;2023-03-04T05:11:21;97811.13;;;-2.37;100.00
4814;BME280;15375;48.540;9.268;2023-03-04T05:13:47;97814.09;;;-2.39;100.00
4814;BME280;15375;48.540;9.268;2023-03-04T05:16:14;97836.34;;;-2.26;100.00
4814;BME280;15375;48.540;9.268;2023-03-04T05:18:39;97795.63;;;-2.52;100.00
4814;BME280;15375;48.540;9.268;2023-03-04T05:21:04;97801.09;;;-2.49;100.00
4814;BME280;15375;48.540;9.268;2023-03-04T05:23:33;97818.50;;;-2.34;100.00
4814;BME280;15375;48.540;9.268;2023-03-04T05:25:59;97797.97;;;-2.51;100.00
4814;BME280;15375;48.540;9.268;2023-03-04T05:28:25;97815.22;;;-2.40;100.00
4814;BME280;15375;48.540;9.268;2023-03-04T05:30:50;97816.03;;;-2.48;100.00
4814;BME280;15375;48.540;9.268;2023-03-04T05:33:16;97817.81;;;-2.61;100.00
4814;BME280;15375;48.540;9.268;2023-03-04T05:35:43;97775.97;;;-2.86;100.00
4814;BME280;15375;48.540;9.268;2023-03-04T05:38:11;97824.22;;;-2.53;100.00
4814;BME280;15375;48.540;9.268;2023-03-04T05:40:38;97820.94;;;-2.59;100.00
4814;BME280;15375;48.540;9.268;2023-03-04T05:43:03;97780.38;;;-2.90;100.00
4814;BME280;15375;48.540;9.268;2023-03-04T05:45:29;97810.47;;;-2.72;100.00
4814;BME280;15375;48.540;9.268;2023-03-04T05:47:55;97788.06;;;-2.88;100.00
4814;BME280;15375;48.540;9.268;2023-03-04T05:50:21;97808.91;;;-2.73;100.00
4814;BME280;15375;48.540;9.268;2023-03-04T05:52:48;97827.75;;;-2.70;100.00
4814;BME280;15375;48.540;9.268;2023-03-04T05:55:14;97802.31;;;-2.84;100.00
4814;BME280;15375;48.540;9.268;2023-03-04T05:57:39;97802.16;;;-2.79;100.00
4814;BME280;15375;48.540;9.268;2023-03-04T06:00:06;97834.44;;;-2.55;100.00
4814;BME280;15375;48.540;9.268;2023-03-04T06:02:34;97812.38;;;-2.81;100.00
4814;BME280;15375;48.540;9.268;2023-03-04T06:05:00;97839.34;;;-2.66;100.00
4814;BME280;15375;48.540;9.268;2023-03-04T06:07:25;97812.59;;;-2.95;100.00
4814;BME280;15375;48.540;9.268;2023-03-04T06:09:51;97828.25;;;-2.93;100.00
4814;BME280;15375;48.540;9.268;2023-03-04T06:12:16;97835.16;;;-2.84;100.00
4814;BME280;15375;48.540;9.268;2023-03-04T06:14:42;97843.94;;;-2.75;100.00
4814;BME280;15375;48.540;9.268;2023-03-04T06:17:07;97803.91;;;-2.92;100.00
4814;BME280;15375;48.540;9.268;2023-03-04T06:19:32;97840.59;;;-2.72;100.00
4814;BME280;15375;48.540;9.268;2023-03-04T06:21:58;97821.97;;;-2.80;100.00
4814;BME280;15375;48.540;9.268;2023-03-04T06:24:23;97862.97;;;-2.38;100.00
4814;BME280;15375;48.540;9.268;2023-03-04T06:26:49;97848.78;;;-2.30;100.00
4814;BME280;15375;48.540;9.268;2023-03-04T06:29:15;97838.44;;;-2.32;100.00
4814;BME280;15375;48.540;9.268;2023-03-04T06:31:40;97865.38;;;-2.16;100.00
4814;BME280;15375;48.540;9.268;2023-03-04T06:34:07;97836.59;;;-2.11;100.00
4814;BME280;15375;48.540;9.268;2023-03-04T06:36:32;97878.72;;;-1.58;100.00
4814;BME280;15375;48.540;9.268;2023-03-04T06:38:58;97859.41;;;-1.63;100.00
4814;BME280;15375;48.540;9.268;2023-03-04T06:41:23;97874.38;;;-1.42;100.00
4814;BME280;15375;48.540;9.268;2023-03-04T06:43:48;97874.09;;;-1.28;100.00
4814;BME280;15375;48.540;9.268;2023-03-04T06:46:14;97873.88;;;-0.82;100.00
4814;BME280;15375;48.540;9.268;2023-03-04T06:48:39;97865.41;;;-0.15;100.00
4814;BME280;15375;48.540;9.268;2023-03-04T06:51:09;97874.97;;;0.47;100.00
4814;BME280;15375;48.540;9.268;2023-03-04T06:53:36;97863.69;;;0.41;93.47
4814;BME280;15375;48.540;9.268;2023-03-04T06:56:01;97875.22;;;-0.07;94.30
4814;BME280;15375;48.540;9.268;2023-03-04T06:58:26;97869.28;;;-0.48;98.05
4814;BME280;15375;48.540;9.268;2023-03-04T07:00:52;97889.41;;;-0.30;100.00
4814;BME280;15375;48.540;9.268;2023-03-04T07:03:17;97861.47;;;-0.41;100.00
4814;BME280;15375;48.540;9.268;2023-03-04T07:05:43;97898.91;;;-0.33;100.00
4814;BME280;15375;48.540;9.268;2023-03-04T07:08:08;97858.88;;;-0.50;100.00
4814;BME280;15375;48.540;9.268;2023-03-04T07:10:34;97908.69;;;-0.37;100.00
4814;BME280;15375;48.540;9.268;2023-03-04T07:13:00;97907.88;;;-0.49;100.00
4814;BME280;15375;48.540;9.268;2023-03-04T07:15:26;97873.81;;;-0.61;100.00
4814;BME280;15375;48.540;9.268;2023-03-04T07:17:51;97887.25;;;-0.37;100.00
4814;BME280;15375;48.540;9.268;2023-03-04T07:20:17;97866.25;;;-0.35;100.00
4814;BME280;15375;48.540;9.268;2023-03-04T07:22:42;97907.06;;;-0.17;100.00
4814;BME280;15375;48.540;9.268;2023-03-04T07:25:08;97841.16;;;0.06;100.00
4814;BME280;15375;48.540;9.268;2023-03-04T07:27:34;97864.91;;;0.44;100.00
4814;BME280;15375;48.540;9.268;2023-03-04T07:29:59;97857.03;;;0.63;100.00
4814;BME280;15375;48.540;9.268;2023-03-04T07:32:27;97862.41;;;1.03;100.00
4814;BME280;15375;48.540;9.268;2023-03-04T07:34:53;97890.28;;;1.26;96.16
4814;BME280;15375;48.540;9.268;2023-03-04T07:37:18;97895.16;;;1.36;99.16
4814;BME280;15375;48.540;9.268;2023-03-04T07:39:43;97891.78;;;1.39;97.02
4814;BME280;15375;48.540;9.268;2023-03-04T07:42:09;97876.34;;;1.36;98.02
4814;BME280;15375;48.540;9.268;2023-03-04T07:44:34;97869.63;;;1.58;97.85
4814;BME280;15375;48.540;9.268;2023-03-04T07:46:59;97870.16;;;1.79;95.91
4814;BME280;15375;48.540;9.268;2023-03-04T07:49:25;97890.22;;;2.13;94.42
4814;BME280;15375;48.540;9.268;2023-03-04T07:51:50;97853.16;;;2.06;94.18
4814;BME280;15375;48.540;9.268;2023-03-04T07:54:15;97907.06;;;2.60;90.34
4814;BME280;15375;48.540;9.268;2023-03-04T07:56:44;97904.84;;;2.81;91.94
4814;BME280;15375;48.540;9.268;2023-03-04T07:59:10;97888.53;;;2.74;91.41
4814;BME280;15375;48.540;9.268;2023-03-04T08:01:36;97890.75;;;2.53;91.95
4814;BME280;15375;48.540;9.268;2023-03-04T08:04:03;97889.41;;;2.28;93.07
4814;BME280;15375;48.540;9.268;2023-03-04T08:06:30;97923.28;;;2.13;94.77
4814;BME280;15375;48.540;9.268;2023-03-04T08:09:01;97909.38;;;1.80;98.72
4814;BME280;15375;48.540;9.268;2023-03-04T08:11:28;97836.84;;;0.81;100.00
4814;BME280;15375;48.540;9.268;2023-03-04T08:13:54;97904.78;;;0.82;100.00
4814;BME280;15375;48.540;9.268;2023-03-04T08:16:20;97901.25;;;0.53;100.00
4814;BME280;15375;48.540;9.268;2023-03-04T08:18:50;97929.44;;;0.35;100.00
4814;BME280;15375;48.540;9.268;2023-03-04T08:21:17;97858.78;;;-0.29;100.00
4814;BME280;15375;48.540;9.268;2023-03-04T08:23:46;97948.22;;;0.47;100.00
4814;BME280;15375;48.540;9.268;2023-03-04T08:26:23;97886.09;;;0.09;100.00
4814;BME280;15375;48.540;9.268;2023-03-04T08:28:53;97950.47;;;0.57;100.00
4814;BME280;15375;48.540;9.268;2023-03-04T08:31:19;97933.44;;;0.53;100.00
4814;BME280;15375;48.540;9.268;2023-03-04T08:33:45;97950.22;;;0.62;100.00
4814;BME280;15375;48.540;9.268;2023-03-04T08:36:12;97965.63;;;0.65;100.00
4814;BME280;15375;48.540;9.268;2023-03-04T08:38:37;97951.22;;;0.58;100.00
4814;BME280;15375;48.540;9.268;2023-03-04T08:41:03;97924.50;;;0.13;100.00
4814;BME280;15375;48.540;9.268;2023-03-04T08:43:29;97959.41;;;0.49;100.00
4814;BME280;15375;48.540;9.268;2023-03-04T08:45:55;97943.19;;;0.22;100.00
4814;BME280;15375;48.540;9.268;2023-03-04T08:48:21;97968.22;;;0.38;100.00
4814;BME280;15375;48.540;9.268;2023-03-04T08:50:47;97865.16;;;-0.46;100.00
4814;BME280;15375;48.540;9.268;2023-03-04T08:53:14;97970.25;;;0.29;100.00
4814;BME280;15375;48.540;9.268;2023-03-04T08:55:40;97947.53;;;0.38;100.00
4814;BME280;15375;48.540;9.268;2023-03-04T08:58:06;97976.59;;;0.60;100.00
4814;BME280;15375;48.540;9.268;2023-03-04T09:00:33;97947.53;;;0.38;100.00
4814;BME280;15375;48.540;9.268;2023-03-04T09:02:58;97960.84;;;0.59;100.00
4814;BME280;15375;48.540;9.268;2023-03-04T09:05:24;97945.19;;;0.61;100.00
4814;BME280;15375;48.540;9.268;2023-03-04T09:07:49;97925.28;;;0.38;100.00
4814;BME280;15375;48.540;9.268;2023-03-04T09:10:15;97870.22;;;-0.20;100.00
4814;BME280;15375;48.540;9.268;2023-03-04T09:12:40;97927.41;;;0.08;100.00
4814;BME280;15375;48.540;9.268;2023-03-04T09:15:06;97968.91;;;0.35;100.00
4814;BME280;15375;48.540;9.268;2023-03-04T09:17:32;97981.66;;;0.50;100.00
4814;BME280;15375;48.540;9.268;2023-03-04T09:19:58;97954.38;;;0.36;100.00
4814;BME280;15375;48.540;9.268;2023-03-04T09:22:23;97950.69;;;0.28;100.00
4814;BME280;15375;48.540;9.268;2023-03-04T09:24:48;97976.84;;;0.43;100.00
4814;BME280;15375;48.540;9.268;2023-03-04T09:27:14;97978.97;;;0.50;100.00
4814;BME280;15375;48.540;9.268;2023-03-04T09:29:39;97972.81;;;0.61;100.00
4814;BME280;15375;48.540;9.268;2023-03-04T09:32:05;97965.09;;;0.60;100.00
4814;BME280;15375;48.540;9.268;2023-03-04T09:34:30;97956.28;;;0.59;100.00
4814;BME280;15375;48.540;9.268;2023-03-04T09:36:56;97963.63;;;0.50;100.00
4814;BME280;15375;48.540;9.268;2023-03-04T09:39:21;97967.47;;;0.49;100.00
4814;BME280;15375;48.540;9.268;2023-03-04T09:41:49;97954.72;;;0.34;100.00
4814;BME280;15375;48.540;9.268;2023-03-04T09:46:47;97952.91;;;0.38;100.00
4814;BME280;15375;48.540;9.268;2023-03-04T09:49:13;97976.03;;;0.43;100.00
4814;BME280;15375;48.540;9.268;2023-03-04T09:56:44;97942.50;;;0.13;100.00
4814;BME280;15375;48.540;9.268;2023-03-04T10:01:54;97989.28;;;0.60;100.00
4814;BME280;15375;48.540;9.268;2023-03-04T10:04:40;97988.91;;;0.61;100.00
4814;BME280;15375;48.540;9.268;2023-03-04T10:07:16;97975.94;;;0.51;100.00
4814;BME280;15375;48.540;9.268;2023-03-04T10:09:45;97988.34;;;0.68;100.00
4814;BME280;15375;48.540;9.268;2023-03-04T10:12:14;97976.84;;;0.68;100.00
4814;BME280;15375;48.540;9.268;2023-03-04T10:15:02;97964.09;;;0.52;100.00
4814;BME280;15375;48.540;9.268;2023-03-04T10:17:36;97979.41;;;0.76;100.00
4814;BME280;15375;48.540;9.268;2023-03-04T10:22:36;97959.72;;;0.48;100.00
4814;BME280;15375;48.540;9.268;2023-03-04T10:27:48;97954.03;;;0.49;100.00
4814;BME280;15375;48.540;9.268;2023-03-04T10:30:30;97975.38;;;0.82;100.00
4814;BME280;15375;48.540;9.268;2023-03-04T10:32:56;97944.25;;;0.81;100.00
4814;BME280;15375;48.540;9.268;2023-03-04T10:35:26;97971.16;;;1.09;100.00
4814;BME280;15375;48.540;9.268;2023-03-04T10:38:01;97968.44;;;1.21;100.00
4814;BME280;15375;48.540;9.268;2023-03-04T10:40:27;97934.47;;;1.01;100.00
4814;BME280;15375;48.540;9.268;2023-03-04T10:42:52;97931.66;;;1.09;100.00
4814;BME280;15375;48.540;9.268;2023-03-04T10:45:22;97954.78;;;1.26;100.00
4814;BME280;15375;48.540;9.268;2023-03-04T10:47:54;97924.63;;;1.05;100.00
4814;BME280;15375;48.540;9.268;2023-03-04T10:50:25;97968.19;;;1.38;100.00
4814;BME280;15375;48.540;9.268;2023-03-04T10:52:52;97938.41;;;1.31;100.00
4814;BME280;15375;48.540;9.268;2023-03-04T10:55:26;97967.88;;;1.55;100.00
4814;BME280;15375;48.540;9.268;2023-03-04T10:58:02;97961.53;;;1.48;100.00
4814;BME280;15375;48.540;9.268;2023-03-04T11:00:33;97921.06;;;1.28;100.00
4814;BME280;15375;48.540;9.268;2023-03-04T11:06:05;97955.25;;;1.71;100.00
4814;BME280;15375;48.540;9.268;2023-03-04T11:08:31;97926.88;;;1.74;100.00
4814;BME280;15375;48.540;9.268;2023-03-04T11:10:56;97933.19;;;1.93;100.00
4814;BME280;15375;48.540;9.268;2023-03-04T11:13:25;97934.13;;;1.85;100.00
4814;BME280;15375;48.540;9.268;2023-03-04T11:16:03;97937.50;;;1.82;100.00
4814;BME280;15375;48.540;9.268;2023-03-04T11:18:43;97939.41;;;1.98;100.00
4814;BME280;15375;48.540;9.268;2023-03-04T11:21:18;97931.78;;;2.00;100.00
4814;BME280;15375;48.540;9.268;2023-03-04T11:26:42;97938.88;;;1.76;100.00
4814;BME280;15375;48.540;9.268;2023-03-04T11:29:21;97898.00;;;1.55;100.00
4814;BME280;15375;48.540;9.268;2023-03-04T11:32:13;97935.63;;;1.99;100.00
4814;BME280;15375;48.540;9.268;2023-03-04T11:42:56;97927.69;;;1.74;100.00
4814;BME280;15375;48.540;9.268;2023-03-04T11:45:47;97908.13;;;1.62;100.00
4814;BME280;15375;48.540;9.268;2023-03-04T11:48:28;97915.38;;;1.73;100.00
4814;BME280;15375;48.540;9.268;2023-03-04T11:51:08;97917.00;;;1.62;100.00
4814;BME280;15375;48.540;9.268;2023-03-04T11:56:39;97909.03;;;1.97;100.00
4814;BME280;15375;48.540;9.268;2023-03-04T11:59:27;97909.22;;;2.04;100.00
4814;BME280;15375;48.540;9.268;2023-03-04T12:15:31;97875.16;;;2.27;97.42
4814;BME280;15375;48.540;9.268;2023-03-04T12:26:45;97837.97;;;2.68;93.71
4814;BME280;15375;48.540;9.268;2023-03-04T12:31:59;97829.81;;;2.45;92.89
4814;BME280;15375;48.540;9.268;2023-03-04T12:34:59;97847.78;;;2.76;93.26
4814;BME280;15375;48.540;9.268;2023-03-04T12:37:49;97835.56;;;3.20;92.05
4814;BME280;15375;48.540;9.268;2023-03-04T12:40:31;97824.06;;;3.23;89.55
4814;BME280;15375;48.540;9.268;2023-03-04T12:48:34;97824.16;;;3.07;87.61
4814;BME280;15375;48.540;9.268;2023-03-04T12:54:17;97814.91;;;3.28;86.97
4814;BME280;15375;48.540;9.268;2023-03-04T12:57:01;97807.81;;;2.97;88.83
4814;BME280;15375;48.540;9.268;2023-03-04T12:59:34;97802.28;;;3.32;87.46
4814;BME280;15375;48.540;9.268;2023-03-04T13:02:33;97806.78;;;3.47;86.43
4814;BME280;15375;48.540;9.268;2023-03-04T13:08:15;97806.22;;;3.38;84.89
4814;BME280;15375;48.540;9.268;2023-03-04T13:10:45;97793.84;;;3.56;85.11
4814;BME280;15375;48.540;9.268;2023-03-04T13:13:37;97791.53;;;3.80;83.60
4814;BME280;15375;48.540;9.268;2023-03-04T13:18:35;97790.41;;;3.13;85.91
4814;BME280;15375;48.540;9.268;2023-03-04T13:23:47;97776.28;;;3.43;84.07
4814;BME280;15375;48.540;9.268;2023-03-04T13:26:37;97798.97;;;3.87;83.64
4814;BME280;15375;48.540;9.268;2023-03-04T13:31:57;97771.13;;;3.79;81.22
4814;BME280;15375;48.540;9.268;2023-03-04T13:34:43;97782.78;;;3.87;81.63
4814;BME280;15375;48.540;9.268;2023-03-04T13:37:30;97780.78;;;4.07;80.53
4814;BME280;15375;48.540;9.268;2023-03-04T13:42:52;97781.88;;;4.02;79.41
4814;BME280;15375;48.540;9.268;2023-03-04T13:45:28;97779.38;;;4.16;78.84
4814;BME280;15375;48.540;9.268;2023-03-04T13:47:54;97773.03;;;3.79;78.35
4814;BME280;15375;48.540;9.268;2023-03-04T13:50:32;97778.25;;;4.21;78.61
4814;BME280;15375;48.540;9.268;2023-03-04T13:53:18;97760.88;;;4.18;79.18
4814;BME280;15375;48.540;9.268;2023-03-04T13:58:42;97769.13;;;4.59;76.79
4814;BME280;15375;48.540;9.268;2023-03-04T14:01:22;97770.69;;;4.60;76.52
4814;BME280;15375;48.540;9.268;2023-03-04T14:03:48;97750.28;;;4.32;76.01
4814;BME280;15375;48.540;9.268;2023-03-04T14:06:41;97785.31;;;4.59;75.91
4814;BME280;15375;48.540;9.268;2023-03-04T14:09:21;97756.47;;;4.63;74.83
4814;BME280;15375;48.540;9.268;2023-03-04T14:11:48;97759.63;;;4.72;75.06
4814;BME280;15375;48.540;9.268;2023-03-04T14:14:17;97720.19;;;4.34;74.72
4814;BME280;15375;48.540;9.268;2023-03-04T14:17:04;97775.91;;;4.75;75.87
4814;BME280;15375;48.540;9.268;2023-03-04T14:19:51;97764.38;;;5.15;74.73
4814;BME280;15375;48.540;9.268;2023-03-04T14:25:22;97756.03;;;5.34;68.90
4814;BME280;15375;48.540;9.268;2023-03-04T14:27:48;97758.16;;;5.11;69.91
4814;BME280;15375;48.540;9.268;2023-03-04T14:30:23;97756.78;;;4.58;72.27
4814;BME280;15375;48.540;9.268;2023-03-04T14:32:51;97741.38;;;4.62;73.00
4814;BME280;15375;48.540;9.268;2023-03-04T14:35:19;97755.09;;;4.79;72.76
4814;BME280;15375;48.540;9.268;2023-03-04T14:38:11;97752.88;;;4.55;73.83
4814;BME280;15375;48.540;9.268;2023-03-04T14:40:43;97732.88;;;4.60;73.66
4814;BME280;15375;48.540;9.268;2023-03-04T14:45:39;97721.28;;;4.59;70.37
4814;BME280;15375;48.540;9.268;2023-03-04T14:48:06;97725.19;;;4.02;72.23